sensor_id;sensor_type;location;lat;lon;timestamp;temperature;humidity
67899;DHT22;54699;51.796;10.956;2024-02-23T00:01:25;18.50;58.30
67899;DHT22;54699;51.796;10.956;2024-02-23T00:03:52;18.50;58.40
67899;DHT22;54699;51.796;10.956;2024-02-23T00:06:20;18.50;58.30
67899;DHT22;54699;51.796;10.956;2024-02-23T00:08:48;18.50;58.30
67899;DHT22;54699;51.796;10.956;2024-02-23T00:11:15;18.50;58.30
67899;DHT22;54699;51.796;10.956;2024-02-23T00:13:42;18.50;58.30
67899;DHT22;54699;51.796;10.956;2024-02-23T00:16:09;18.50;58.30
67899;DHT22;54699;51.796;10.956;2024-02-23T00:18:38;18.50;58.30
67899;DHT22;54699;51.796;10.956;2024-02-23T00:21:04;18.50;58.20
67899;DHT22;54699;51.796;10.956;2024-02-23T00:23:31;18.50;58.30
67899;DHT22;54699;51.796;10.956;2024-02-23T00:25:58;18.50;58.30
67899;DHT22;54699;51.796;10.956;2024-02-23T00:28:25;18.50;58.20
67899;DHT22;54699;51.796;10.956;2024-02-23T00:30:52;18.50;58.20
67899;DHT22;54699;51.796;10.956;2024-02-23T00:33:19;18.40;58.20
67899;DHT22;54699;51.796;10.956;2024-02-23T00:35:47;18.50;58.20
67899;DHT22;54699;51.796;10.956;2024-02-23T00:38:14;18.40;58.10
67899;DHT22;54699;51.796;10.956;2024-02-23T00:40:41;18.40;58.20
67899;DHT22;54699;51.796;10.956;2024-02-23T00:43:08;18.40;58.20
67899;DHT22;54699;51.796;10.956;2024-02-23T00:45:34;18.40;58.10
67899;DHT22;54699;51.796;10.956;2024-02-23T00:48:01;18.40;58.10
67899;DHT22;54699;51.796;10.956;2024-02-23T00:50:28;18.40;58.10
67899;DHT22;54699;51.796;10.956;2024-02-23T00:52:57;18.40;58.10
67899;DHT22;54699;51.796;10.956;2024-02-23T00:55:23;18.40;58.20
67899;DHT22;54699;51.796;10.956;2024-02-23T00:57:52;18.40;58.10
67899;DHT22;54699;51.796;10.956;2024-02-23T01:00:19;18.40;58.00
67899;DHT22;54699;51.796;10.956;2024-02-23T01:02:45;18.40;58.00
67899;DHT22;54699;51.796;10.956;2024-02-23T01:05:12;18.40;58.00
67899;DHT22;54699;51.796;10.956;2024-02-23T01:07:39;18.40;58.00
67899;DHT22;54699;51.796;10.956;2024-02-23T01:10:08;18.40;58.00
67899;DHT22;54699;51.796;10.956;2024-02-23T01:12:35;18.40;58.00
67899;DHT22;54699;51.796;10.956;2024-02-23T01:15:03;18.40;58.00
67899;DHT22;54699;51.796;10.956;2024-02-23T01:17:30;18.40;58.00
67899;DHT22;54699;51.796;10.956;2024-02-23T01:19:57;18.40;58.00
67899;DHT22;54699;51.796;10.956;2024-02-23T01:22:24;18.40;58.00
67899;DHT22;54699;51.796;10.956;2024-02-23T01:24:50;18.30;57.90
67899;DHT22;54699;51.796;10.956;2024-02-23T01:27:19;18.40;58.00
67899;DHT22;54699;51.796;10.956;2024-02-23T01:29:45;18.30;58.00
67899;DHT22;54699;51.796;10.956;2024-02-23T01:32:12;18.30;57.90
67899;DHT22;54699;51.796;10.956;2024-02-23T01:34:39;18.30;57.80
67899;DHT22;54699;51.796;10.956;2024-02-23T01:37:06;18.30;57.80
67899;DHT22;54699;51.796;10.956;2024-02-23T01:39:33;18.30;57.80
67899;DHT22;54699;51.796;10.956;2024-02-23T01:42:00;18.30;57.80
67899;DHT22;54699;51.796;10.956;2024-02-23T01:44:28;18.30;57.90
67899;DHT22;54699;51.796;10.956;2024-02-23T01:46:55;18.30;57.80
67899;DHT22;54699;51.796;10.956;2024-02-23T01:49:22;18.30;57.80
67899;DHT22;54699;51.796;10.956;2024-02-23T01:51:55;18.30;57.80
67899;DHT22;54699;51.796;10.956;2024-02-23T01:54:22;18.30;57.80
67899;DHT22;54699;51.796;10.956;2024-02-23T01:56:49;18.30;57.80
67899;DHT22;54699;51.796;10.956;2024-02-23T01:59:16;18.30;57.80
67899;DHT22;54699;51.796;10.956;2024-02-23T02:01:45;18.30;57.80
67899;DHT22;54699;51.796;10.956;2024-02-23T02:04:12;18.30;57.70
67899;DHT22;54699;51.796;10.956;2024-02-23T02:06:39;18.30;57.90
67899;DHT22;54699;51.796;10.956;2024-02-23T02:09:07;18.30;57.70
67899;DHT22;54699;51.796;10.956;2024-02-23T02:11:34;18.30;57.70
67899;DHT22;54699;51.796;10.956;2024-02-23T02:14:01;18.30;57.60
67899;DHT22;54699;51.796;10.956;2024-02-23T02:16:27;18.30;57.60
67899;DHT22;54699;51.796;10.956;2024-02-23T02:18:56;18.30;57.60
67899;DHT22;54699;51.796;10.956;2024-02-23T02:21:23;18.30;57.60
67899;DHT22;54699;51.796;10.956;2024-02-23T02:23:50;18.30;57.60
67899;DHT22;54699;51.796;10.956;2024-02-23T02:26:17;18.30;58.50
67899;DHT22;54699;51.796;10.956;2024-02-23T02:28:44;18.30;57.60
67899;DHT22;54699;51.796;10.956;2024-02-23T02:31:11;18.20;57.50
67899;DHT22;54699;51.796;10.956;2024-02-23T02:33:39;18.30;57.60
67899;DHT22;54699;51.796;10.956;2024-02-23T02:36:07;18.20;57.40
67899;DHT22;54699;51.796;10.956;2024-02-23T02:38:36;18.20;57.40
67899;DHT22;54699;51.796;10.956;2024-02-23T02:41:03;18.30;57.40
67899;DHT22;54699;51.796;10.956;2024-02-23T02:43:31;18.30;57.40
67899;DHT22;54699;51.796;10.956;2024-02-23T02:45:58;18.30;57.50
67899;DHT22;54699;51.796;10.956;2024-02-23T02:48:25;18.20;57.40
67899;DHT22;54699;51.796;10.956;2024-02-23T02:50:52;18.20;57.40
67899;DHT22;54699;51.796;10.956;2024-02-23T02:53:20;18.20;58.30
67899;DHT22;54699;51.796;10.956;2024-02-23T02:55:46;18.20;57.40
67899;DHT22;54699;51.796;10.956;2024-02-23T02:58:13;18.20;57.30
67899;DHT22;54699;51.796;10.956;2024-02-23T03:00:40;18.20;57.30
67899;DHT22;54699;51.796;10.956;2024-02-23T03:03:07;18.20;57.30
67899;DHT22;54699;51.796;10.956;2024-02-23T03:05:34;18.20;57.30
67899;DHT22;54699;51.796;10.956;2024-02-23T03:08:01;18.20;57.30
67899;DHT22;54699;51.796;10.956;2024-02-23T03:10:30;18.20;57.20
67899;DHT22;54699;51.796;10.956;2024-02-23T03:12:57;18.20;57.20
67899;DHT22;54699;51.796;10.956;2024-02-23T03:15:24;18.20;57.20
67899;DHT22;54699;51.796;10.956;2024-02-23T03:17:50;18.20;57.10
67899;DHT22;54699;51.796;10.956;2024-02-23T03:20:17;18.10;57.20
67899;DHT22;54699;51.796;10.956;2024-02-23T03:22:44;18.20;57.10
67899;DHT22;54699;51.796;10.956;2024-02-23T03:25:11;18.20;57.10
67899;DHT22;54699;51.796;10.956;2024-02-23T03:27:39;18.10;57.10
67899;DHT22;54699;51.796;10.956;2024-02-23T03:30:06;18.20;57.10
67899;DHT22;54699;51.796;10.956;2024-02-23T03:32:34;18.10;57.10
67899;DHT22;54699;51.796;10.956;2024-02-23T03:35:03;18.10;57.00
67899;DHT22;54699;51.796;10.956;2024-02-23T03:37:30;18.10;57.00
67899;DHT22;54699;51.796;10.956;2024-02-23T03:39:57;18.10;57.00
67899;DHT22;54699;51.796;10.956;2024-02-23T03:42:25;18.10;57.00
67899;DHT22;54699;51.796;10.956;2024-02-23T03:44:53;18.10;57.00
67899;DHT22;54699;51.796;10.956;2024-02-23T03:47:20;18.10;57.10
67899;DHT22;54699;51.796;10.956;2024-02-23T03:49:47;18.10;57.10
67899;DHT22;54699;51.796;10.956;2024-02-23T03:52:13;18.10;57.00
67899;DHT22;54699;51.796;10.956;2024-02-23T03:54:41;18.10;57.00
67899;DHT22;54699;51.796;10.956;2024-02-23T03:57:08;18.10;57.00
67899;DHT22;54699;51.796;10.956;2024-02-23T03:59:35;18.10;57.00
67899;DHT22;54699;51.796;10.956;2024-02-23T04:02:04;18.10;57.00
67899;DHT22;54699;51.796;10.956;2024-02-23T04:04:31;18.10;57.00
67899;DHT22;54699;51.796;10.956;2024-02-23T04:06:58;18.10;56.90
67899;DHT22;54699;51.796;10.956;2024-02-23T04:09:24;18.10;57.00
67899;DHT22;54699;51.796;10.956;2024-02-23T04:11:51;18.10;56.90
67899;DHT22;54699;51.796;10.956;2024-02-23T04:14:18;18.10;57.00
67899;DHT22;54699;51.796;10.956;2024-02-23T04:16:45;18.10;56.90
67899;DHT22;54699;51.796;10.956;2024-02-23T04:19:13;18.10;56.90
67899;DHT22;54699;51.796;10.956;2024-02-23T04:21:40;18.00;57.00
67899;DHT22;54699;51.796;10.956;2024-02-23T04:24:07;18.00;57.00
67899;DHT22;54699;51.796;10.956;2024-02-23T04:26:34;18.00;56.90
67899;DHT22;54699;51.796;10.956;2024-02-23T04:29:01;18.10;56.90
67899;DHT22;54699;51.796;10.956;2024-02-23T04:31:27;18.00;56.90
67899;DHT22;54699;51.796;10.956;2024-02-23T04:33:54;18.00;56.90
67899;DHT22;54699;51.796;10.956;2024-02-23T04:36:22;18.00;56.90
67899;DHT22;54699;51.796;10.956;2024-02-23T04:38:50;18.00;56.90
67899;DHT22;54699;51.796;10.956;2024-02-23T04:41:20;18.00;56.90
67899;DHT22;54699;51.796;10.956;2024-02-23T04:43:47;18.00;56.90
67899;DHT22;54699;51.796;10.956;2024-02-23T04:46:14;18.00;56.90
67899;DHT22;54699;51.796;10.956;2024-02-23T04:48:41;18.00;56.90
67899;DHT22;54699;51.796;10.956;2024-02-23T04:51:08;18.00;56.90
67899;DHT22;54699;51.796;10.956;2024-02-23T04:53:37;17.90;56.80
67899;DHT22;54699;51.796;10.956;2024-02-23T04:56:04;18.00;56.90
67899;DHT22;54699;51.796;10.956;2024-02-23T04:58:31;18.00;56.90
67899;DHT22;54699;51.796;10.956;2024-02-23T05:00:58;17.90;56.80
67899;DHT22;54699;51.796;10.956;2024-02-23T05:03:25;18.00;56.90
67899;DHT22;54699;51.796;10.956;2024-02-23T05:05:52;18.00;56.80
67899;DHT22;54699;51.796;10.956;2024-02-23T05:08:20;18.00;56.90
67899;DHT22;54699;51.796;10.956;2024-02-23T05:10:48;18.00;56.90
67899;DHT22;54699;51.796;10.956;2024-02-23T05:13:15;18.00;56.90
67899;DHT22;54699;51.796;10.956;2024-02-23T05:15:42;17.90;56.80
67899;DHT22;54699;51.796;10.956;2024-02-23T05:18:09;18.00;56.80
67899;DHT22;54699;51.796;10.956;2024-02-23T05:20:35;18.00;56.80
67899;DHT22;54699;51.796;10.956;2024-02-23T05:23:02;18.00;56.70
67899;DHT22;54699;51.796;10.956;2024-02-23T05:25:30;18.00;56.80
67899;DHT22;54699;51.796;10.956;2024-02-23T05:27:58;18.00;56.70
67899;DHT22;54699;51.796;10.956;2024-02-23T05:30:25;18.00;56.60
67899;DHT22;54699;51.796;10.956;2024-02-23T05:32:56;18.00;56.60
67899;DHT22;54699;51.796;10.956;2024-02-23T05:35:23;18.00;56.80
67899;DHT22;54699;51.796;10.956;2024-02-23T05:37:52;18.10;56.70
67899;DHT22;54699;51.796;10.956;2024-02-23T05:40:20;18.20;56.60
67899;DHT22;54699;51.796;10.956;2024-02-23T05:42:47;18.40;56.20
67899;DHT22;54699;51.796;10.956;2024-02-23T05:45:16;18.80;55.70
67899;DHT22;54699;51.796;10.956;2024-02-23T05:47:43;19.10;54.80
67899;DHT22;54699;51.796;10.956;2024-02-23T05:50:13;19.40;54.00
67899;DHT22;54699;51.796;10.956;2024-02-23T05:52:47;19.60;52.30
67899;DHT22;54699;51.796;10.956;2024-02-23T05:55:15;19.80;51.20
67899;DHT22;54699;51.796;10.956;2024-02-23T05:57:43;20.00;50.30
67899;DHT22;54699;51.796;10.956;2024-02-23T06:00:14;20.20;49.40
67899;DHT22;54699;51.796;10.956;2024-02-23T06:02:44;20.40;49.80
67899;DHT22;54699;51.796;10.956;2024-02-23T06:05:11;20.60;47.90
67899;DHT22;54699;51.796;10.956;2024-02-23T06:07:39;20.70;47.30
67899;DHT22;54699;51.796;10.956;2024-02-23T06:10:13;20.80;46.70
67899;DHT22;54699;51.796;10.956;2024-02-23T06:12:40;21.00;47.00
67899;DHT22;54699;51.796;10.956;2024-02-23T06:15:07;21.10;47.50
67899;DHT22;54699;51.796;10.956;2024-02-23T06:17:37;21.30;47.20
67899;DHT22;54699;51.796;10.956;2024-02-23T06:20:05;21.50;46.90
67899;DHT22;54699;51.796;10.956;2024-02-23T06:22:33;21.50;46.50
67899;DHT22;54699;51.796;10.956;2024-02-23T06:25:00;21.70;46.20
67899;DHT22;54699;51.796;10.956;2024-02-23T06:27:28;21.80;46.00
67899;DHT22;54699;51.796;10.956;2024-02-23T06:29:55;21.80;45.70
67899;DHT22;54699;51.796;10.956;2024-02-23T06:32:22;21.90;45.50
67899;DHT22;54699;51.796;10.956;2024-02-23T06:34:51;21.90;45.20
67899;DHT22;54699;51.796;10.956;2024-02-23T06:37:18;22.10;45.00
67899;DHT22;54699;51.796;10.956;2024-02-23T06:39:45;21.80;45.90
67899;DHT22;54699;51.796;10.956;2024-02-23T06:42:16;21.90;45.10
67899;DHT22;54699;51.796;10.956;2024-02-23T06:44:43;22.10;44.90
67899;DHT22;54699;51.796;10.956;2024-02-23T06:47:10;22.10;44.60
67899;DHT22;54699;51.796;10.956;2024-02-23T06:49:41;22.10;44.30
67899;DHT22;54699;51.796;10.956;2024-02-23T06:52:11;22.10;44.20
67899;DHT22;54699;51.796;10.956;2024-02-23T06:54:37;22.00;43.60
67899;DHT22;54699;51.796;10.956;2024-02-23T06:57:05;22.00;42.60
67899;DHT22;54699;51.796;10.956;2024-02-23T06:59:32;22.00;43.40
67899;DHT22;54699;51.796;10.956;2024-02-23T07:01:59;22.10;43.20
67899;DHT22;54699;51.796;10.956;2024-02-23T07:04:29;22.20;43.80
67899;DHT22;54699;51.796;10.956;2024-02-23T07:06:57;22.10;43.30
67899;DHT22;54699;51.796;10.956;2024-02-23T07:09:26;22.20;43.10
67899;DHT22;54699;51.796;10.956;2024-02-23T07:11:53;22.20;43.90
67899;DHT22;54699;51.796;10.956;2024-02-23T07:14:20;22.20;43.60
67899;DHT22;54699;51.796;10.956;2024-02-23T07:16:51;22.30;43.50
67899;DHT22;54699;51.796;10.956;2024-02-23T07:19:18;22.40;43.30
67899;DHT22;54699;51.796;10.956;2024-02-23T07:21:46;22.40;43.20
67899;DHT22;54699;51.796;10.956;2024-02-23T07:24:13;22.30;43.10
67899;DHT22;54699;51.796;10.956;2024-02-23T07:26:41;22.30;43.10
67899;DHT22;54699;51.796;10.956;2024-02-23T07:29:09;22.30;43.20
67899;DHT22;54699;51.796;10.956;2024-02-23T07:31:36;22.20;43.40
67899;DHT22;54699;51.796;10.956;2024-02-23T07:34:11;22.40;43.40
67899;DHT22;54699;51.796;10.956;2024-02-23T07:36:38;22.50;43.40
67899;DHT22;54699;51.796;10.956;2024-02-23T07:39:05;22.40;43.10
67899;DHT22;54699;51.796;10.956;2024-02-23T07:41:33;22.30;43.20
67899;DHT22;54699;51.796;10.956;2024-02-23T07:44:03;22.30;43.30
67899;DHT22;54699;51.796;10.956;2024-02-23T07:46:31;22.30;43.30
67899;DHT22;54699;51.796;10.956;2024-02-23T07:48:58;22.50;43.20
67899;DHT22;54699;51.796;10.956;2024-02-23T07:51:26;22.60;43.00
67899;DHT22;54699;51.796;10.956;2024-02-23T07:53:54;22.50;42.90
67899;DHT22;54699;51.796;10.956;2024-02-23T07:56:24;22.40;42.90
67899;DHT22;54699;51.796;10.956;2024-02-23T07:58:52;22.50;42.80
67899;DHT22;54699;51.796;10.956;2024-02-23T08:01:20;22.50;42.90
67899;DHT22;54699;51.796;10.956;2024-02-23T08:03:49;22.50;42.70
67899;DHT22;54699;51.796;10.956;2024-02-23T08:06:16;22.50;42.60
67899;DHT22;54699;51.796;10.956;2024-02-23T08:08:44;22.50;42.60
67899;DHT22;54699;51.796;10.956;2024-02-23T08:11:11;22.50;42.60
67899;DHT22;54699;51.796;10.956;2024-02-23T08:13:39;22.30;42.70
67899;DHT22;54699;51.796;10.956;2024-02-23T08:16:06;22.20;42.90
67899;DHT22;54699;51.796;10.956;2024-02-23T08:18:36;22.20;42.90
67899;DHT22;54699;51.796;10.956;2024-02-23T08:21:03;22.20;43.00
67899;DHT22;54699;51.796;10.956;2024-02-23T08:23:31;22.20;42.90
67899;DHT22;54699;51.796;10.956;2024-02-23T08:25:58;22.20;42.90
67899;DHT22;54699;51.796;10.956;2024-02-23T08:28:26;22.20;42.80
67899;DHT22;54699;51.796;10.956;2024-02-23T08:30:53;22.30;42.90
67899;DHT22;54699;51.796;10.956;2024-02-23T08:33:20;22.30;42.80
67899;DHT22;54699;51.796;10.956;2024-02-23T08:35:51;22.30;42.80
67899;DHT22;54699;51.796;10.956;2024-02-23T08:38:18;22.30;42.80
67899;DHT22;54699;51.796;10.956;2024-02-23T08:40:49;22.30;43.20
67899;DHT22;54699;51.796;10.956;2024-02-23T08:43:20;22.40;43.10
67899;DHT22;54699;51.796;10.956;2024-02-23T08:45:57;22.30;43.90
67899;DHT22;54699;51.796;10.956;2024-02-23T08:48:34;22.30;43.70
67899;DHT22;54699;51.796;10.956;2024-02-23T08:51:04;22.30;43.60
67899;DHT22;54699;51.796;10.956;2024-02-23T08:53:34;22.50;44.30
67899;DHT22;54699;51.796;10.956;2024-02-23T08:56:04;22.70;43.10
67899;DHT22;54699;51.796;10.956;2024-02-23T08:58:37;22.70;43.50
67899;DHT22;54699;51.796;10.956;2024-02-23T09:01:04;22.90;43.40
67899;DHT22;54699;51.796;10.956;2024-02-23T09:03:31;22.90;42.70
67899;DHT22;54699;51.796;10.956;2024-02-23T09:06:01;23.00;41.30
67899;DHT22;54699;51.796;10.956;2024-02-23T09:08:30;22.90;40.80
67899;DHT22;54699;51.796;10.956;2024-02-23T09:10:57;22.90;40.60
67899;DHT22;54699;51.796;10.956;2024-02-23T09:13:24;23.10;40.50
67899;DHT22;54699;51.796;10.956;2024-02-23T09:15:54;23.00;40.00
67899;DHT22;54699;51.796;10.956;2024-02-23T09:18:22;23.00;40.00
67899;DHT22;54699;51.796;10.956;2024-02-23T09:20:49;23.10;40.80
67899;DHT22;54699;51.796;10.956;2024-02-23T09:23:16;22.90;40.80
67899;DHT22;54699;51.796;10.956;2024-02-23T09:25:47;23.00;40.00
67899;DHT22;54699;51.796;10.956;2024-02-23T09:28:20;22.90;40.30
67899;DHT22;54699;51.796;10.956;2024-02-23T09:30:47;23.00;41.70
67899;DHT22;54699;51.796;10.956;2024-02-23T09:33:15;22.90;41.60
67899;DHT22;54699;51.796;10.956;2024-02-23T09:35:42;23.00;41.50
67899;DHT22;54699;51.796;10.956;2024-02-23T09:38:09;23.00;41.60
67899;DHT22;54699;51.796;10.956;2024-02-23T09:40:36;23.00;41.60
67899;DHT22;54699;51.796;10.956;2024-02-23T09:43:05;23.00;41.80
67899;DHT22;54699;51.796;10.956;2024-02-23T09:45:34;23.00;41.40
67899;DHT22;54699;51.796;10.956;2024-02-23T09:48:01;23.00;41.20
67899;DHT22;54699;51.796;10.956;2024-02-23T09:50:30;23.10;41.10
67899;DHT22;54699;51.796;10.956;2024-02-23T09:53:00;23.10;41.10
67899;DHT22;54699;51.796;10.956;2024-02-23T09:55:33;23.10;41.00
67899;DHT22;54699;51.796;10.956;2024-02-23T09:58:05;23.10;40.80
67899;DHT22;54699;51.796;10.956;2024-02-23T10:00:34;23.20;40.70
67899;DHT22;54699;51.796;10.956;2024-02-23T10:03:04;23.20;40.10
67899;DHT22;54699;51.796;10.956;2024-02-23T10:05:33;23.30;40.10
67899;DHT22;54699;51.796;10.956;2024-02-23T10:08:00;23.30;40.50
67899;DHT22;54699;51.796;10.956;2024-02-23T10:10:29;23.30;39.60
67899;DHT22;54699;51.796;10.956;2024-02-23T10:12:59;23.30;39.50
67899;DHT22;54699;51.796;10.956;2024-02-23T10:15:32;23.50;39.70
67899;DHT22;54699;51.796;10.956;2024-02-23T10:17:59;23.50;39.10
67899;DHT22;54699;51.796;10.956;2024-02-23T10:20:26;23.50;39.00
67899;DHT22;54699;51.796;10.956;2024-02-23T10:22:54;23.50;39.30
67899;DHT22;54699;51.796;10.956;2024-02-23T10:25:21;23.50;39.30
67899;DHT22;54699;51.796;10.956;2024-02-23T10:27:50;23.50;39.10
67899;DHT22;54699;51.796;10.956;2024-02-23T10:30:17;23.70;39.10
67899;DHT22;54699;51.796;10.956;2024-02-23T10:32:46;23.70;39.10
67899;DHT22;54699;51.796;10.956;2024-02-23T10:35:17;23.70;39.00
67899;DHT22;54699;51.796;10.956;2024-02-23T10:37:51;23.80;39.10
67899;DHT22;54699;51.796;10.956;2024-02-23T10:40:21;23.80;39.60
67899;DHT22;54699;51.796;10.956;2024-02-23T10:42:49;23.70;37.30
67899;DHT22;54699;51.796;10.956;2024-02-23T10:45:19;23.80;38.80
67899;DHT22;54699;51.796;10.956;2024-02-23T10:47:56;23.80;38.30
67899;DHT22;54699;51.796;10.956;2024-02-23T10:50:31;23.90;39.00
67899;DHT22;54699;51.796;10.956;2024-02-23T10:53:00;24.10;39.50
67899;DHT22;54699;51.796;10.956;2024-02-23T10:55:32;24.30;39.40
67899;DHT22;54699;51.796;10.956;2024-02-23T10:58:10;24.40;39.80
67899;DHT22;54699;51.796;10.956;2024-02-23T11:00:40;24.60;40.20
67899;DHT22;54699;51.796;10.956;2024-02-23T11:03:25;24.70;40.00
67899;DHT22;54699;51.796;10.956;2024-02-23T11:05:53;24.90;39.90
67899;DHT22;54699;51.796;10.956;2024-02-23T11:08:24;25.00;39.70
67899;DHT22;54699;51.796;10.956;2024-02-23T11:10:54;24.90;38.50
67899;DHT22;54699;51.796;10.956;2024-02-23T11:13:29;24.70;38.10
67899;DHT22;54699;51.796;10.956;2024-02-23T11:16:03;24.60;37.90
67899;DHT22;54699;51.796;10.956;2024-02-23T11:18:33;24.70;37.20
67899;DHT22;54699;51.796;10.956;2024-02-23T11:21:03;24.60;36.70
67899;DHT22;54699;51.796;10.956;2024-02-23T11:23:39;24.70;36.40
67899;DHT22;54699;51.796;10.956;2024-02-23T11:26:10;24.70;37.10
67899;DHT22;54699;51.796;10.956;2024-02-23T11:28:42;24.80;38.20
67899;DHT22;54699;51.796;10.956;2024-02-23T11:31:12;24.80;36.80
67899;DHT22;54699;51.796;10.956;2024-02-23T11:33:48;24.80;36.70
67899;DHT22;54699;51.796;10.956;2024-02-23T11:36:21;24.80;36.60
67899;DHT22;54699;51.796;10.956;2024-02-23T11:38:51;24.80;36.50
67899;DHT22;54699;51.796;10.956;2024-02-23T11:41:21;24.80;36.60
67899;DHT22;54699;51.796;10.956;2024-02-23T11:43:50;24.80;36.50
67899;DHT22;54699;51.796;10.956;2024-02-23T11:46:17;24.90;36.60
67899;DHT22;54699;51.796;10.956;2024-02-23T11:48:46;24.80;36.50
67899;DHT22;54699;51.796;10.956;2024-02-23T11:51:23;24.80;36.90
67899;DHT22;54699;51.796;10.956;2024-02-23T11:53:52;24.80;36.90
67899;DHT22;54699;51.796;10.956;2024-02-23T11:56:23;24.70;36.70
67899;DHT22;54699;51.796;10.956;2024-02-23T11:58:51;24.80;36.40
67899;DHT22;54699;51.796;10.956;2024-02-23T12:01:20;24.90;37.00
67899;DHT22;54699;51.796;10.956;2024-02-23T12:03:48;24.80;37.00
67899;DHT22;54699;51.796;10.956;2024-02-23T12:06:16;24.90;37.20
67899;DHT22;54699;51.796;10.956;2024-02-23T12:08:45;25.00;36.90
67899;DHT22;54699;51.796;10.956;2024-02-23T12:11:13;25.00;36.10
67899;DHT22;54699;51.796;10.956;2024-02-23T12:13:45;24.90;36.60
67899;DHT22;54699;51.796;10.956;2024-02-23T12:16:13;25.00;36.80
67899;DHT22;54699;51.796;10.956;2024-02-23T12:18:41;25.10;36.90
67899;DHT22;54699;51.796;10.956;2024-02-23T12:21:08;25.10;37.30
67899;DHT22;54699;51.796;10.956;2024-02-23T12:23:39;25.10;37.60
67899;DHT22;54699;51.796;10.956;2024-02-23T12:26:09;25.00;37.80
67899;DHT22;54699;51.796;10.956;2024-02-23T12:28:38;25.20;37.30
67899;DHT22;54699;51.796;10.956;2024-02-23T12:31:06;25.20;37.60
67899;DHT22;54699;51.796;10.956;2024-02-23T12:33:36;25.20;37.60
67899;DHT22;54699;51.796;10.956;2024-02-23T12:36:07;25.20;37.60
67899;DHT22;54699;51.796;10.956;2024-02-23T12:38:35;25.20;37.50
67899;DHT22;54699;51.796;10.956;2024-02-23T12:41:03;25.10;36.80
67899;DHT22;54699;51.796;10.956;2024-02-23T12:43:35;25.00;36.20
67899;DHT22;54699;51.796;10.956;2024-02-23T12:46:05;25.00;36.50
67899;DHT22;54699;51.796;10.956;2024-02-23T12:48:37;24.90;36.90
67899;DHT22;54699;51.796;10.956;2024-02-23T12:51:04;24.90;37.50
67899;DHT22;54699;51.796;10.956;2024-02-23T12:53:32;25.00;36.40
67899;DHT22;54699;51.796;10.956;2024-02-23T12:56:07;24.90;36.40
67899;DHT22;54699;51.796;10.956;2024-02-23T12:58:40;24.90;35.60
67899;DHT22;54699;51.796;10.956;2024-02-23T13:01:08;25.00;36.30
67899;DHT22;54699;51.796;10.956;2024-02-23T13:03:36;25.00;35.40
67899;DHT22;54699;51.796;10.956;2024-02-23T13:06:05;25.00;34.70
67899;DHT22;54699;51.796;10.956;2024-02-23T13:08:33;25.00;34.60
67899;DHT22;54699;51.796;10.956;2024-02-23T13:11:00;24.90;34.70
67899;DHT22;54699;51.796;10.956;2024-02-23T13:13:31;24.70;34.70
67899;DHT22;54699;51.796;10.956;2024-02-23T13:15:59;24.90;35.10
67899;DHT22;54699;51.796;10.956;2024-02-23T13:18:26;24.90;35.40
67899;DHT22;54699;51.796;10.956;2024-02-23T13:20:53;24.90;35.60
67899;DHT22;54699;51.796;10.956;2024-02-23T13:23:20;25.00;35.00
67899;DHT22;54699;51.796;10.956;2024-02-23T13:25:47;25.00;34.80
67899;DHT22;54699;51.796;10.956;2024-02-23T13:28:14;25.10;34.80
67899;DHT22;54699;51.796;10.956;2024-02-23T13:30:41;24.80;34.30
67899;DHT22;54699;51.796;10.956;2024-02-23T13:33:10;24.90;34.90
67899;DHT22;54699;51.796;10.956;2024-02-23T13:35:37;24.80;35.00
67899;DHT22;54699;51.796;10.956;2024-02-23T13:38:05;24.70;34.50
67899;DHT22;54699;51.796;10.956;2024-02-23T13:40:32;24.70;35.20
67899;DHT22;54699;51.796;10.956;2024-02-23T13:42:59;24.80;35.10
67899;DHT22;54699;51.796;10.956;2024-02-23T13:45:26;24.70;35.60
67899;DHT22;54699;51.796;10.956;2024-02-23T13:47:56;24.70;35.90
67899;DHT22;54699;51.796;10.956;2024-02-23T13:50:26;24.60;35.90
67899;DHT22;54699;51.796;10.956;2024-02-23T13:52:53;24.60;35.80
67899;DHT22;54699;51.796;10.956;2024-02-23T13:55:20;24.60;36.00
67899;DHT22;54699;51.796;10.956;2024-02-23T13:57:47;24.60;35.80
67899;DHT22;54699;51.796;10.956;2024-02-23T14:00:15;24.60;36.00
67899;DHT22;54699;51.796;10.956;2024-02-23T14:02:42;24.60;36.00
67899;DHT22;54699;51.796;10.956;2024-02-23T14:05:10;24.40;35.80
67899;DHT22;54699;51.796;10.956;2024-02-23T14:07:38;24.50;36.00
67899;DHT22;54699;51.796;10.956;2024-02-23T14:10:05;24.40;35.70
67899;DHT22;54699;51.796;10.956;2024-02-23T14:12:33;24.50;35.70
67899;DHT22;54699;51.796;10.956;2024-02-23T14:15:00;24.50;35.60
67899;DHT22;54699;51.796;10.956;2024-02-23T14:17:28;24.40;35.70
67899;DHT22;54699;51.796;10.956;2024-02-23T14:19:54;24.30;34.90
67899;DHT22;54699;51.796;10.956;2024-02-23T14:22:21;24.30;31.90
67899;DHT22;54699;51.796;10.956;2024-02-23T14:24:50;24.20;35.40
67899;DHT22;54699;51.796;10.956;2024-02-23T14:27:16;24.30;34.50
67899;DHT22;54699;51.796;10.956;2024-02-23T14:29:43;24.20;34.50
67899;DHT22;54699;51.796;10.956;2024-02-23T14:32:11;24.10;34.60
67899;DHT22;54699;51.796;10.956;2024-02-23T14:34:42;24.10;36.00
67899;DHT22;54699;51.796;10.956;2024-02-23T14:37:09;24.10;34.90
67899;DHT22;54699;51.796;10.956;2024-02-23T14:39:35;24.10;34.50
67899;DHT22;54699;51.796;10.956;2024-02-23T14:42:04;24.10;34.10
67899;DHT22;54699;51.796;10.956;2024-02-23T14:44:33;24.00;33.40
67899;DHT22;54699;51.796;10.956;2024-02-23T14:47:01;24.00;33.20
67899;DHT22;54699;51.796;10.956;2024-02-23T14:49:28;24.00;33.70
67899;DHT22;54699;51.796;10.956;2024-02-23T14:51:55;24.00;33.40
67899;DHT22;54699;51.796;10.956;2024-02-23T14:54:21;24.00;32.80
67899;DHT22;54699;51.796;10.956;2024-02-23T14:56:48;24.00;33.30
67899;DHT22;54699;51.796;10.956;2024-02-23T14:59:17;23.90;33.30
67899;DHT22;54699;51.796;10.956;2024-02-23T15:01:43;24.00;34.10
67899;DHT22;54699;51.796;10.956;2024-02-23T15:04:10;23.90;34.60
67899;DHT22;54699;51.796;10.956;2024-02-23T15:06:37;23.80;34.60
67899;DHT22;54699;51.796;10.956;2024-02-23T15:09:04;23.50;34.50
67899;DHT22;54699;51.796;10.956;2024-02-23T15:11:32;23.30;34.70
67899;DHT22;54699;51.796;10.956;2024-02-23T15:13:59;23.00;35.40
67899;DHT22;54699;51.796;10.956;2024-02-23T15:16:28;22.70;36.10
67899;DHT22;54699;51.796;10.956;2024-02-23T15:18:56;22.50;37.10
67899;DHT22;54699;51.796;10.956;2024-02-23T15:21:23;22.30;37.70